Brighton, Utah
Current Conditions -  °F | °C
As of 8:53 AM on Sunday 21 Dec 2014 (Local Time) from KSLC Reporting Station
Light Rain Light Rain  
Wind Chill: 29°   Ceiling: 3200
Heat Index: 39°   Visibility: 8mi
Dew Point: 35°   Wind: 20mph
Humidity: 86%   Direction: 170°S
Pressure: 29.97"   Gusts: 26mph
Location:  40.6239°N, 111.817°W
Report Text: KSLC 211553Z 17017G23KT 8SM -RA OVC032 04/02 A2997 RMK AO2 SLP145 P0003 T00390017
Loading
Personal Weather Stations






























Interactive Weather Map New forecast layout! Learn more

10-Day Weather Forecast

Advertisements
Track Severe Weather on mobile